sensor_id;sensor_type;location;lat;lon;timestamp;P1;durP1;ratioP1;P2;durP2;ratioP2
51614;SDS011;37695;52.960;6.188;2024-03-08T00:01:30;17.63;;;7.40;;
51614;SDS011;37695;52.960;6.188;2024-03-08T00:03:57;18.23;;;7.80;;
51614;SDS011;37695;52.960;6.188;2024-03-08T00:06:23;18.38;;;8.05;;
51614;SDS011;37695;52.960;6.188;2024-03-08T00:08:49;17.45;;;7.22;;
51614;SDS011;37695;52.960;6.188;2024-03-08T00:11:16;17.75;;;6.40;;
51614;SDS011;37695;52.960;6.188;2024-03-08T00:13:41;15.80;;;6.88;;
51614;SDS011;37695;52.960;6.188;2024-03-08T00:16:07;15.88;;;6.43;;
51614;SDS011;37695;52.960;6.188;2024-03-08T00:18:34;16.75;;;7.38;;
51614;SDS011;37695;52.960;6.188;2024-03-08T00:21:00;17.60;;;7.15;;
51614;SDS011;37695;52.960;6.188;2024-03-08T00:23:26;16.50;;;6.68;;
51614;SDS011;37695;52.960;6.188;2024-03-08T00:25:53;16.23;;;6.40;;
51614;SDS011;37695;52.960;6.188;2024-03-08T00:28:20;19.30;;;6.78;;
51614;SDS011;37695;52.960;6.188;2024-03-08T00:30:47;17.08;;;7.22;;
51614;SDS011;37695;52.960;6.188;2024-03-08T00:33:13;16.90;;;7.07;;
51614;SDS011;37695;52.960;6.188;2024-03-08T00:35:39;17.27;;;7.05;;
51614;SDS011;37695;52.960;6.188;2024-03-08T00:38:05;16.77;;;6.97;;
51614;SDS011;37695;52.960;6.188;2024-03-08T00:40:31;19.58;;;8.07;;
51614;SDS011;37695;52.960;6.188;2024-03-08T00:42:57;18.05;;;6.30;;
51614;SDS011;37695;52.960;6.188;2024-03-08T00:45:23;15.43;;;6.20;;
51614;SDS011;37695;52.960;6.188;2024-03-08T00:47:49;18.23;;;7.40;;
51614;SDS011;37695;52.960;6.188;2024-03-08T00:50:14;17.77;;;7.95;;
51614;SDS011;37695;52.960;6.188;2024-03-08T00:52:41;18.02;;;7.05;;
51614;SDS011;37695;52.960;6.188;2024-03-08T00:55:07;21.52;;;7.18;;
51614;SDS011;37695;52.960;6.188;2024-03-08T00:57:35;19.42;;;7.28;;
51614;SDS011;37695;52.960;6.188;2024-03-08T01:00:02;19.05;;;9.07;;
51614;SDS011;37695;52.960;6.188;2024-03-08T01:02:29;16.33;;;6.53;;
51614;SDS011;37695;52.960;6.188;2024-03-08T01:04:55;17.63;;;6.95;;
51614;SDS011;37695;52.960;6.188;2024-03-08T01:07:21;18.73;;;6.90;;
51614;SDS011;37695;52.960;6.188;2024-03-08T01:09:47;16.30;;;6.93;;
51614;SDS011;37695;52.960;6.188;2024-03-08T01:12:13;18.35;;;7.32;;
51614;SDS011;37695;52.960;6.188;2024-03-08T01:14:39;15.50;;;6.78;;
51614;SDS011;37695;52.960;6.188;2024-03-08T01:17:05;17.35;;;7.03;;
51614;SDS011;37695;52.960;6.188;2024-03-08T01:19:31;17.65;;;7.35;;
51614;SDS011;37695;52.960;6.188;2024-03-08T01:21:58;19.60;;;7.43;;
51614;SDS011;37695;52.960;6.188;2024-03-08T01:24:24;19.48;;;7.20;;
51614;SDS011;37695;52.960;6.188;2024-03-08T01:26:50;18.52;;;7.93;;
51614;SDS011;37695;52.960;6.188;2024-03-08T01:29:16;19.23;;;7.47;;
51614;SDS011;37695;52.960;6.188;2024-03-08T01:31:42;17.60;;;7.78;;
51614;SDS011;37695;52.960;6.188;2024-03-08T01:34:08;17.13;;;7.28;;
51614;SDS011;37695;52.960;6.188;2024-03-08T01:36:35;15.13;;;6.88;;
51614;SDS011;37695;52.960;6.188;2024-03-08T01:39:02;16.45;;;6.57;;
51614;SDS011;37695;52.960;6.188;2024-03-08T01:41:33;17.40;;;7.75;;
51614;SDS011;37695;52.960;6.188;2024-03-08T01:43:59;18.08;;;7.63;;
51614;SDS011;37695;52.960;6.188;2024-03-08T01:46:25;19.50;;;7.05;;
51614;SDS011;37695;52.960;6.188;2024-03-08T01:48:53;16.42;;;6.60;;
51614;SDS011;37695;52.960;6.188;2024-03-08T01:51:19;19.08;;;8.20;;
51614;SDS011;37695;52.960;6.188;2024-03-08T01:53:46;18.38;;;6.88;;
51614;SDS011;37695;52.960;6.188;2024-03-08T01:56:13;18.85;;;8.15;;
51614;SDS011;37695;52.960;6.188;2024-03-08T01:58:40;16.55;;;7.35;;
51614;SDS011;37695;52.960;6.188;2024-03-08T02:01:08;17.38;;;7.85;;
51614;SDS011;37695;52.960;6.188;2024-03-08T02:03:41;14.98;;;7.38;;
51614;SDS011;37695;52.960;6.188;2024-03-08T02:06:08;20.52;;;7.50;;
51614;SDS011;37695;52.960;6.188;2024-03-08T02:08:35;16.20;;;7.10;;
51614;SDS011;37695;52.960;6.188;2024-03-08T02:11:01;18.95;;;8.32;;
51614;SDS011;37695;52.960;6.188;2024-03-08T02:13:27;22.30;;;8.20;;
51614;SDS011;37695;52.960;6.188;2024-03-08T02:15:54;19.88;;;7.88;;
51614;SDS011;37695;52.960;6.188;2024-03-08T02:18:28;18.10;;;7.80;;
51614;SDS011;37695;52.960;6.188;2024-03-08T02:20:54;17.52;;;7.95;;
51614;SDS011;37695;52.960;6.188;2024-03-08T02:23:21;21.92;;;8.50;;
51614;SDS011;37695;52.960;6.188;2024-03-08T02:25:49;21.95;;;8.27;;
51614;SDS011;37695;52.960;6.188;2024-03-08T02:28:16;19.63;;;7.93;;
51614;SDS011;37695;52.960;6.188;2024-03-08T02:30:45;17.65;;;7.97;;
51614;SDS011;37695;52.960;6.188;2024-03-08T02:33:17;20.73;;;8.40;;
51614;SDS011;37695;52.960;6.188;2024-03-08T02:35:43;22.88;;;8.23;;
51614;SDS011;37695;52.960;6.188;2024-03-08T02:38:13;19.73;;;8.88;;
51614;SDS011;37695;52.960;6.188;2024-03-08T02:40:42;20.98;;;8.93;;
51614;SDS011;37695;52.960;6.188;2024-03-08T02:43:11;21.48;;;7.65;;
51614;SDS011;37695;52.960;6.188;2024-03-08T02:45:38;19.77;;;8.30;;
51614;SDS011;37695;52.960;6.188;2024-03-08T02:48:04;18.05;;;7.88;;
51614;SDS011;37695;52.960;6.188;2024-03-08T02:50:33;20.40;;;7.93;;
51614;SDS011;37695;52.960;6.188;2024-03-08T02:53:00;19.90;;;7.88;;
51614;SDS011;37695;52.960;6.188;2024-03-08T02:55:26;17.20;;;8.25;;
51614;SDS011;37695;52.960;6.188;2024-03-08T02:57:52;18.80;;;8.50;;
51614;SDS011;37695;52.960;6.188;2024-03-08T03:00:19;20.00;;;8.55;;
51614;SDS011;37695;52.960;6.188;2024-03-08T03:02:46;18.00;;;7.80;;
51614;SDS011;37695;52.960;6.188;2024-03-08T03:05:12;17.48;;;7.05;;
51614;SDS011;37695;52.960;6.188;2024-03-08T03:07:39;18.45;;;8.02;;
51614;SDS011;37695;52.960;6.188;2024-03-08T03:10:05;19.73;;;8.98;;
51614;SDS011;37695;52.960;6.188;2024-03-08T03:12:32;18.50;;;8.88;;
51614;SDS011;37695;52.960;6.188;2024-03-08T03:14:59;17.92;;;7.53;;
51614;SDS011;37695;52.960;6.188;2024-03-08T03:17:25;19.42;;;7.80;;
51614;SDS011;37695;52.960;6.188;2024-03-08T03:19:51;21.00;;;8.38;;
51614;SDS011;37695;52.960;6.188;2024-03-08T03:22:18;21.65;;;8.07;;
51614;SDS011;37695;52.960;6.188;2024-03-08T03:24:47;18.13;;;8.23;;
51614;SDS011;37695;52.960;6.188;2024-03-08T03:27:13;18.63;;;7.53;;
51614;SDS011;37695;52.960;6.188;2024-03-08T03:29:40;18.75;;;8.48;;
51614;SDS011;37695;52.960;6.188;2024-03-08T03:32:13;19.05;;;8.38;;
51614;SDS011;37695;52.960;6.188;2024-03-08T03:34:39;19.48;;;8.15;;
51614;SDS011;37695;52.960;6.188;2024-03-08T03:37:05;18.38;;;8.23;;
51614;SDS011;37695;52.960;6.188;2024-03-08T03:39:37;20.38;;;8.20;;
51614;SDS011;37695;52.960;6.188;2024-03-08T03:42:16;25.23;;;8.50;;
51614;SDS011;37695;52.960;6.188;2024-03-08T03:44:46;18.90;;;8.43;;
51614;SDS011;37695;52.960;6.188;2024-03-08T03:47:12;18.42;;;7.47;;
51614;SDS011;37695;52.960;6.188;2024-03-08T03:49:39;20.20;;;9.23;;
51614;SDS011;37695;52.960;6.188;2024-03-08T03:52:05;23.05;;;8.98;;
51614;SDS011;37695;52.960;6.188;2024-03-08T03:54:31;19.63;;;8.10;;
51614;SDS011;37695;52.960;6.188;2024-03-08T03:56:58;21.25;;;9.15;;
51614;SDS011;37695;52.960;6.188;2024-03-08T03:59:25;20.90;;;8.35;;
51614;SDS011;37695;52.960;6.188;2024-03-08T04:01:52;17.95;;;8.15;;
51614;SDS011;37695;52.960;6.188;2024-03-08T04:04:18;18.33;;;8.77;;
51614;SDS011;37695;52.960;6.188;2024-03-08T04:06:44;18.98;;;8.25;;
51614;SDS011;37695;52.960;6.188;2024-03-08T04:09:10;21.08;;;8.20;;
51614;SDS011;37695;52.960;6.188;2024-03-08T04:11:37;20.80;;;8.82;;
51614;SDS011;37695;52.960;6.188;2024-03-08T04:14:03;20.92;;;8.73;;
51614;SDS011;37695;52.960;6.188;2024-03-08T04:16:30;17.88;;;8.93;;
51614;SDS011;37695;52.960;6.188;2024-03-08T04:18:57;19.65;;;8.43;;
51614;SDS011;37695;52.960;6.188;2024-03-08T04:21:23;21.63;;;8.20;;
51614;SDS011;37695;52.960;6.188;2024-03-08T04:23:49;19.75;;;8.15;;
51614;SDS011;37695;52.960;6.188;2024-03-08T04:26:15;19.80;;;8.13;;
51614;SDS011;37695;52.960;6.188;2024-03-08T04:28:41;21.38;;;8.48;;
51614;SDS011;37695;52.960;6.188;2024-03-08T04:31:06;18.50;;;9.05;;
51614;SDS011;37695;52.960;6.188;2024-03-08T04:33:32;22.08;;;8.88;;
51614;SDS011;37695;52.960;6.188;2024-03-08T04:36:01;19.67;;;8.05;;
51614;SDS011;37695;52.960;6.188;2024-03-08T04:38:30;20.25;;;8.45;;
51614;SDS011;37695;52.960;6.188;2024-03-08T04:40:57;18.30;;;8.05;;
51614;SDS011;37695;52.960;6.188;2024-03-08T04:43:23;20.75;;;8.55;;
51614;SDS011;37695;52.960;6.188;2024-03-08T04:45:52;18.30;;;7.78;;
51614;SDS011;37695;52.960;6.188;2024-03-08T04:48:18;17.77;;;7.68;;
51614;SDS011;37695;52.960;6.188;2024-03-08T04:50:45;19.58;;;7.28;;
51614;SDS011;37695;52.960;6.188;2024-03-08T04:53:11;21.55;;;9.35;;
51614;SDS011;37695;52.960;6.188;2024-03-08T04:55:37;19.30;;;7.22;;
51614;SDS011;37695;52.960;6.188;2024-03-08T04:58:03;18.27;;;8.27;;
51614;SDS011;37695;52.960;6.188;2024-03-08T05:00:31;19.27;;;7.95;;
51614;SDS011;37695;52.960;6.188;2024-03-08T05:02:57;18.48;;;8.20;;
51614;SDS011;37695;52.960;6.188;2024-03-08T05:05:23;20.25;;;7.88;;
51614;SDS011;37695;52.960;6.188;2024-03-08T05:07:51;18.45;;;7.45;;
51614;SDS011;37695;52.960;6.188;2024-03-08T05:10:17;15.80;;;7.53;;
51614;SDS011;37695;52.960;6.188;2024-03-08T05:12:43;18.25;;;8.57;;
51614;SDS011;37695;52.960;6.188;2024-03-08T05:15:09;17.25;;;7.95;;
51614;SDS011;37695;52.960;6.188;2024-03-08T05:17:35;20.77;;;8.25;;
51614;SDS011;37695;52.960;6.188;2024-03-08T05:20:01;18.73;;;8.10;;
51614;SDS011;37695;52.960;6.188;2024-03-08T05:22:28;19.23;;;8.70;;
51614;SDS011;37695;52.960;6.188;2024-03-08T05:24:54;19.10;;;7.78;;
51614;SDS011;37695;52.960;6.188;2024-03-08T05:27:20;22.67;;;8.73;;
51614;SDS011;37695;52.960;6.188;2024-03-08T05:29:46;19.25;;;7.88;;
51614;SDS011;37695;52.960;6.188;2024-03-08T05:32:13;21.52;;;8.65;;
51614;SDS011;37695;52.960;6.188;2024-03-08T05:34:39;19.90;;;7.63;;
51614;SDS011;37695;52.960;6.188;2024-03-08T05:37:05;19.88;;;8.75;;
51614;SDS011;37695;52.960;6.188;2024-03-08T05:39:32;20.33;;;7.85;;
51614;SDS011;37695;52.960;6.188;2024-03-08T05:41:58;18.13;;;7.15;;
51614;SDS011;37695;52.960;6.188;2024-03-08T05:44:24;18.05;;;7.30;;
51614;SDS011;37695;52.960;6.188;2024-03-08T05:46:53;21.20;;;8.30;;
51614;SDS011;37695;52.960;6.188;2024-03-08T05:49:21;19.05;;;7.43;;
51614;SDS011;37695;52.960;6.188;2024-03-08T05:51:47;17.60;;;7.75;;
51614;SDS011;37695;52.960;6.188;2024-03-08T05:54:13;20.35;;;8.18;;
51614;SDS011;37695;52.960;6.188;2024-03-08T05:56:39;20.52;;;8.52;;
51614;SDS011;37695;52.960;6.188;2024-03-08T05:59:09;22.60;;;8.73;;
51614;SDS011;37695;52.960;6.188;2024-03-08T06:01:35;23.35;;;8.20;;
51614;SDS011;37695;52.960;6.188;2024-03-08T06:04:01;17.92;;;7.90;;
51614;SDS011;37695;52.960;6.188;2024-03-08T06:06:28;19.80;;;8.15;;
51614;SDS011;37695;52.960;6.188;2024-03-08T06:08:54;21.17;;;8.55;;
51614;SDS011;37695;52.960;6.188;2024-03-08T06:11:21;20.88;;;8.18;;
51614;SDS011;37695;52.960;6.188;2024-03-08T06:13:47;19.27;;;7.75;;
51614;SDS011;37695;52.960;6.188;2024-03-08T06:16:14;19.98;;;8.48;;
51614;SDS011;37695;52.960;6.188;2024-03-08T06:18:40;20.38;;;8.25;;
51614;SDS011;37695;52.960;6.188;2024-03-08T06:21:07;17.92;;;8.07;;
51614;SDS011;37695;52.960;6.188;2024-03-08T06:23:41;18.90;;;7.75;;
51614;SDS011;37695;52.960;6.188;2024-03-08T06:26:07;17.40;;;7.75;;
51614;SDS011;37695;52.960;6.188;2024-03-08T06:28:33;21.65;;;7.85;;
51614;SDS011;37695;52.960;6.188;2024-03-08T06:31:02;17.83;;;7.90;;
51614;SDS011;37695;52.960;6.188;2024-03-08T06:33:28;15.95;;;7.65;;
51614;SDS011;37695;52.960;6.188;2024-03-08T06:35:55;19.83;;;9.25;;
51614;SDS011;37695;52.960;6.188;2024-03-08T06:38:25;18.55;;;8.52;;
51614;SDS011;37695;52.960;6.188;2024-03-08T06:40:51;23.83;;;9.13;;
51614;SDS011;37695;52.960;6.188;2024-03-08T06:43:17;17.27;;;8.25;;
51614;SDS011;37695;52.960;6.188;2024-03-08T06:45:44;20.42;;;8.15;;
51614;SDS011;37695;52.960;6.188;2024-03-08T06:48:16;20.88;;;8.35;;
51614;SDS011;37695;52.960;6.188;2024-03-08T06:50:43;21.30;;;8.63;;
51614;SDS011;37695;52.960;6.188;2024-03-08T06:53:10;20.67;;;8.43;;
51614;SDS011;37695;52.960;6.188;2024-03-08T06:55:36;18.88;;;7.93;;
51614;SDS011;37695;52.960;6.188;2024-03-08T06:58:02;20.58;;;7.93;;
51614;SDS011;37695;52.960;6.188;2024-03-08T07:00:28;17.95;;;8.10;;
51614;SDS011;37695;52.960;6.188;2024-03-08T07:02:55;18.42;;;7.57;;
51614;SDS011;37695;52.960;6.188;2024-03-08T07:05:25;19.70;;;8.07;;
51614;SDS011;37695;52.960;6.188;2024-03-08T07:07:55;17.83;;;7.45;;
51614;SDS011;37695;52.960;6.188;2024-03-08T07:10:24;19.33;;;8.60;;
51614;SDS011;37695;52.960;6.188;2024-03-08T07:12:53;21.67;;;7.65;;
51614;SDS011;37695;52.960;6.188;2024-03-08T07:15:19;19.70;;;8.35;;
51614;SDS011;37695;52.960;6.188;2024-03-08T07:17:45;19.77;;;7.68;;
51614;SDS011;37695;52.960;6.188;2024-03-08T07:20:12;22.20;;;8.75;;
51614;SDS011;37695;52.960;6.188;2024-03-08T07:22:38;18.88;;;8.35;;
51614;SDS011;37695;52.960;6.188;2024-03-08T07:25:05;21.77;;;9.25;;
51614;SDS011;37695;52.960;6.188;2024-03-08T07:30:18;21.40;;;8.50;;
51614;SDS011;37695;52.960;6.188;2024-03-08T07:33:04;19.35;;;8.05;;
51614;SDS011;37695;52.960;6.188;2024-03-08T07:35:31;20.45;;;7.75;;
51614;SDS011;37695;52.960;6.188;2024-03-08T07:37:57;18.50;;;8.20;;
51614;SDS011;37695;52.960;6.188;2024-03-08T07:40:25;18.90;;;7.55;;
51614;SDS011;37695;52.960;6.188;2024-03-08T07:42:51;19.50;;;8.73;;
51614;SDS011;37695;52.960;6.188;2024-03-08T07:45:17;18.40;;;8.32;;
51614;SDS011;37695;52.960;6.188;2024-03-08T07:47:43;20.20;;;8.10;;
51614;SDS011;37695;52.960;6.188;2024-03-08T07:50:09;17.27;;;7.97;;
51614;SDS011;37695;52.960;6.188;2024-03-08T07:52:36;18.48;;;8.52;;
51614;SDS011;37695;52.960;6.188;2024-03-08T07:55:02;19.65;;;8.95;;
51614;SDS011;37695;52.960;6.188;2024-03-08T07:57:31;24.40;;;9.00;;
51614;SDS011;37695;52.960;6.188;2024-03-08T07:59:58;22.27;;;8.48;;
51614;SDS011;37695;52.960;6.188;2024-03-08T08:02:24;21.67;;;9.75;;
51614;SDS011;37695;52.960;6.188;2024-03-08T08:04:50;21.63;;;8.35;;
51614;SDS011;37695;52.960;6.188;2024-03-08T08:07:16;22.33;;;8.73;;
51614;SDS011;37695;52.960;6.188;2024-03-08T08:09:42;22.48;;;9.32;;
51614;SDS011;37695;52.960;6.188;2024-03-08T08:12:08;20.65;;;10.30;;
51614;SDS011;37695;52.960;6.188;2024-03-08T08:14:37;19.00;;;8.77;;
51614;SDS011;37695;52.960;6.188;2024-03-08T08:17:04;21.73;;;8.80;;
51614;SDS011;37695;52.960;6.188;2024-03-08T08:19:30;19.17;;;9.07;;
51614;SDS011;37695;52.960;6.188;2024-03-08T08:21:57;20.52;;;9.25;;
51614;SDS011;37695;52.960;6.188;2024-03-08T08:24:23;19.27;;;8.60;;
51614;SDS011;37695;52.960;6.188;2024-03-08T08:26:49;19.48;;;9.30;;
51614;SDS011;37695;52.960;6.188;2024-03-08T08:29:15;19.95;;;9.10;;
51614;SDS011;37695;52.960;6.188;2024-03-08T08:31:41;20.08;;;9.10;;
51614;SDS011;37695;52.960;6.188;2024-03-08T08:34:09;19.80;;;9.20;;
51614;SDS011;37695;52.960;6.188;2024-03-08T08:36:36;20.25;;;8.73;;
51614;SDS011;37695;52.960;6.188;2024-03-08T08:39:03;18.95;;;8.75;;
51614;SDS011;37695;52.960;6.188;2024-03-08T08:41:30;22.27;;;9.63;;
51614;SDS011;37695;52.960;6.188;2024-03-08T08:43:56;21.33;;;9.25;;
51614;SDS011;37695;52.960;6.188;2024-03-08T08:46:22;19.88;;;8.52;;
51614;SDS011;37695;52.960;6.188;2024-03-08T08:48:48;20.80;;;9.93;;
51614;SDS011;37695;52.960;6.188;2024-03-08T08:51:14;18.45;;;9.32;;
51614;SDS011;37695;52.960;6.188;2024-03-08T08:53:40;17.80;;;9.70;;
51614;SDS011;37695;52.960;6.188;2024-03-08T08:56:08;19.92;;;8.95;;
51614;SDS011;37695;52.960;6.188;2024-03-08T08:58:34;21.02;;;9.68;;
51614;SDS011;37695;52.960;6.188;2024-03-08T09:01:00;19.67;;;9.10;;
51614;SDS011;37695;52.960;6.188;2024-03-08T09:03:26;21.02;;;9.32;;
51614;SDS011;37695;52.960;6.188;2024-03-08T09:05:54;19.38;;;8.88;;
51614;SDS011;37695;52.960;6.188;2024-03-08T09:08:21;17.83;;;9.80;;
51614;SDS011;37695;52.960;6.188;2024-03-08T09:10:48;18.80;;;8.95;;
51614;SDS011;37695;52.960;6.188;2024-03-08T09:13:14;22.00;;;10.30;;
51614;SDS011;37695;52.960;6.188;2024-03-08T09:15:41;20.85;;;10.00;;
51614;SDS011;37695;52.960;6.188;2024-03-08T09:18:09;19.30;;;9.45;;
51614;SDS011;37695;52.960;6.188;2024-03-08T09:20:35;19.95;;;9.90;;
51614;SDS011;37695;52.960;6.188;2024-03-08T09:23:02;19.77;;;9.27;;
51614;SDS011;37695;52.960;6.188;2024-03-08T09:25:29;21.38;;;9.50;;
51614;SDS011;37695;52.960;6.188;2024-03-08T09:27:55;19.27;;;9.88;;
51614;SDS011;37695;52.960;6.188;2024-03-08T09:30:21;20.20;;;9.77;;
51614;SDS011;37695;52.960;6.188;2024-03-08T09:32:47;21.20;;;9.70;;
51614;SDS011;37695;52.960;6.188;2024-03-08T09:35:13;22.23;;;9.50;;
51614;SDS011;37695;52.960;6.188;2024-03-08T09:37:40;20.35;;;10.25;;
51614;SDS011;37695;52.960;6.188;2024-03-08T09:40:06;20.25;;;10.52;;
51614;SDS011;37695;52.960;6.188;2024-03-08T09:42:40;23.02;;;10.20;;
51614;SDS011;37695;52.960;6.188;2024-03-08T09:45:10;22.45;;;10.20;;
51614;SDS011;37695;52.960;6.188;2024-03-08T09:47:40;21.30;;;10.50;;
51614;SDS011;37695;52.960;6.188;2024-03-08T09:50:07;23.42;;;11.10;;
51614;SDS011;37695;52.960;6.188;2024-03-08T09:52:43;21.17;;;10.30;;
51614;SDS011;37695;52.960;6.188;2024-03-08T09:55:12;21.75;;;10.63;;
51614;SDS011;37695;52.960;6.188;2024-03-08T09:57:41;23.23;;;10.38;;
51614;SDS011;37695;52.960;6.188;2024-03-08T10:00:27;17.63;;;9.23;;
51614;SDS011;37695;52.960;6.188;2024-03-08T10:02:53;18.27;;;9.57;;
51614;SDS011;37695;52.960;6.188;2024-03-08T10:05:19;22.42;;;9.88;;
51614;SDS011;37695;52.960;6.188;2024-03-08T10:07:48;23.60;;;10.70;;
51614;SDS011;37695;52.960;6.188;2024-03-08T10:10:13;20.65;;;10.25;;
51614;SDS011;37695;52.960;6.188;2024-03-08T10:12:39;19.95;;;9.43;;
51614;SDS011;37695;52.960;6.188;2024-03-08T10:15:07;19.73;;;10.00;;
51614;SDS011;37695;52.960;6.188;2024-03-08T10:17:34;19.55;;;10.30;;
51614;SDS011;37695;52.960;6.188;2024-03-08T10:20:00;24.00;;;10.93;;
51614;SDS011;37695;52.960;6.188;2024-03-08T10:22:28;20.30;;;9.77;;
51614;SDS011;37695;52.960;6.188;2024-03-08T10:24:55;21.52;;;10.65;;
51614;SDS011;37695;52.960;6.188;2024-03-08T10:27:21;23.98;;;11.07;;
51614;SDS011;37695;52.960;6.188;2024-03-08T10:29:47;19.80;;;9.50;;
51614;SDS011;37695;52.960;6.188;2024-03-08T10:32:14;22.17;;;10.88;;
51614;SDS011;37695;52.960;6.188;2024-03-08T10:34:40;21.52;;;10.70;;
51614;SDS011;37695;52.960;6.188;2024-03-08T10:37:07;21.92;;;10.80;;
51614;SDS011;37695;52.960;6.188;2024-03-08T10:39:36;20.05;;;10.07;;
51614;SDS011;37695;52.960;6.188;2024-03-08T10:42:03;20.00;;;11.43;;
51614;SDS011;37695;52.960;6.188;2024-03-08T10:47:33;20.88;;;10.65;;
51614;SDS011;37695;52.960;6.188;2024-03-08T10:49:59;20.88;;;10.90;;
51614;SDS011;37695;52.960;6.188;2024-03-08T10:52:35;21.95;;;11.10;;
51614;SDS011;37695;52.960;6.188;2024-03-08T10:55:02;21.65;;;10.55;;
51614;SDS011;37695;52.960;6.188;2024-03-08T10:57:28;21.58;;;10.32;;
51614;SDS011;37695;52.960;6.188;2024-03-08T10:59:54;21.58;;;10.50;;
51614;SDS011;37695;52.960;6.188;2024-03-08T11:02:20;23.08;;;11.07;;
51614;SDS011;37695;52.960;6.188;2024-03-08T11:04:47;22.02;;;10.65;;
51614;SDS011;37695;52.960;6.188;2024-03-08T11:07:14;19.75;;;10.18;;
51614;SDS011;37695;52.960;6.188;2024-03-08T11:09:43;18.40;;;9.80;;
51614;SDS011;37695;52.960;6.188;2024-03-08T11:12:23;19.83;;;10.40;;
51614;SDS011;37695;52.960;6.188;2024-03-08T11:15:00;20.25;;;10.32;;
51614;SDS011;37695;52.960;6.188;2024-03-08T11:20:08;20.30;;;10.93;;
51614;SDS011;37695;52.960;6.188;2024-03-08T11:22:41;20.95;;;11.02;;
51614;SDS011;37695;52.960;6.188;2024-03-08T11:28:14;20.20;;;10.68;;
51614;SDS011;37695;52.960;6.188;2024-03-08T11:33:29;18.90;;;9.77;;
51614;SDS011;37695;52.960;6.188;2024-03-08T11:36:02;22.98;;;11.32;;
51614;SDS011;37695;52.960;6.188;2024-03-08T11:38:44;20.08;;;10.48;;
51614;SDS011;37695;52.960;6.188;2024-03-08T11:41:17;18.55;;;10.05;;
51614;SDS011;37695;52.960;6.188;2024-03-08T11:43:45;20.98;;;10.90;;
51614;SDS011;37695;52.960;6.188;2024-03-08T11:46:11;18.65;;;9.38;;
51614;SDS011;37695;52.960;6.188;2024-03-08T11:48:41;19.98;;;10.50;;
51614;SDS011;37695;52.960;6.188;2024-03-08T11:51:09;21.90;;;11.25;;
51614;SDS011;37695;52.960;6.188;2024-03-08T11:53:37;20.52;;;10.18;;
51614;SDS011;37695;52.960;6.188;2024-03-08T11:56:10;19.33;;;10.65;;
51614;SDS011;37695;52.960;6.188;2024-03-08T11:58:40;19.80;;;10.02;;
51614;SDS011;37695;52.960;6.188;2024-03-08T12:01:10;20.95;;;9.73;;
51614;SDS011;37695;52.960;6.188;2024-03-08T12:03:39;19.08;;;9.18;;
51614;SDS011;37695;52.960;6.188;2024-03-08T12:06:07;20.05;;;9.82;;
51614;SDS011;37695;52.960;6.188;2024-03-08T12:08:34;18.05;;;9.80;;
51614;SDS011;37695;52.960;6.188;2024-03-08T12:11:00;15.43;;;9.48;;
51614;SDS011;37695;52.960;6.188;2024-03-08T12:13:27;21.17;;;9.52;;
51614;SDS011;37695;52.960;6.188;2024-03-08T12:15:57;18.17;;;9.35;;
51614;SDS011;37695;52.960;6.188;2024-03-08T12:18:27;19.02;;;9.07;;
51614;SDS011;37695;52.960;6.188;2024-03-08T12:21:04;17.92;;;9.63;;
51614;SDS011;37695;52.960;6.188;2024-03-08T12:23:35;19.90;;;10.23;;
51614;SDS011;37695;52.960;6.188;2024-03-08T12:28:41;18.20;;;9.15;;
51614;SDS011;37695;52.960;6.188;2024-03-08T12:31:14;21.63;;;10.30;;
51614;SDS011;37695;52.960;6.188;2024-03-08T12:33:53;20.15;;;10.35;;
51614;SDS011;37695;52.960;6.188;2024-03-08T12:36:20;20.05;;;10.55;;
51614;SDS011;37695;52.960;6.188;2024-03-08T12:38:46;17.95;;;10.07;;
51614;SDS011;37695;52.960;6.188;2024-03-08T12:41:19;18.50;;;9.65;;
51614;SDS011;37695;52.960;6.188;2024-03-08T12:43:46;19.48;;;10.45;;
51614;SDS011;37695;52.960;6.188;2024-03-08T12:46:17;20.30;;;10.18;;
51614;SDS011;37695;52.960;6.188;2024-03-08T12:48:45;16.73;;;9.57;;
51614;SDS011;37695;52.960;6.188;2024-03-08T12:51:14;18.08;;;9.63;;
51614;SDS011;37695;52.960;6.188;2024-03-08T12:53:44;18.15;;;9.23;;
51614;SDS011;37695;52.960;6.188;2024-03-08T12:56:11;20.38;;;9.57;;
51614;SDS011;37695;52.960;6.188;2024-03-08T12:58:37;18.98;;;9.98;;
51614;SDS011;37695;52.960;6.188;2024-03-08T13:01:07;19.00;;;10.27;;
51614;SDS011;37695;52.960;6.188;2024-03-08T13:03:34;17.88;;;10.18;;
51614;SDS011;37695;52.960;6.188;2024-03-08T13:06:03;18.17;;;9.20;;
51614;SDS011;37695;52.960;6.188;2024-03-08T13:08:36;20.13;;;10.00;;
51614;SDS011;37695;52.960;6.188;2024-03-08T13:11:06;18.67;;;10.52;;
51614;SDS011;37695;52.960;6.188;2024-03-08T13:16:05;16.48;;;8.30;;
51614;SDS011;37695;52.960;6.188;2024-03-08T13:18:33;19.10;;;9.77;;
51614;SDS011;37695;52.960;6.188;2024-03-08T13:20:59;17.85;;;10.68;;
51614;SDS011;37695;52.960;6.188;2024-03-08T13:23:30;18.98;;;10.07;;
51614;SDS011;37695;52.960;6.188;2024-03-08T13:25:56;17.52;;;9.40;;
51614;SDS011;37695;52.960;6.188;2024-03-08T13:28:22;18.02;;;9.32;;
51614;SDS011;37695;52.960;6.188;2024-03-08T13:30:53;18.65;;;8.82;;
51614;SDS011;37695;52.960;6.188;2024-03-08T13:33:19;18.48;;;10.02;;
51614;SDS011;37695;52.960;6.188;2024-03-08T13:35:45;17.48;;;9.25;;
51614;SDS011;37695;52.960;6.188;2024-03-08T13:38:12;17.15;;;10.05;;
51614;SDS011;37695;52.960;6.188;2024-03-08T13:40:38;20.23;;;10.57;;
51614;SDS011;37695;52.960;6.188;2024-03-08T13:43:05;16.08;;;9.32;;
51614;SDS011;37695;52.960;6.188;2024-03-08T13:45:33;18.17;;;9.70;;
51614;SDS011;37695;52.960;6.188;2024-03-08T13:48:03;19.80;;;10.18;;
51614;SDS011;37695;52.960;6.188;2024-03-08T13:50:29;20.50;;;9.73;;
51614;SDS011;37695;52.960;6.188;2024-03-08T13:52:55;17.30;;;8.88;;
51614;SDS011;37695;52.960;6.188;2024-03-08T13:55:22;18.50;;;10.25;;
51614;SDS011;37695;52.960;6.188;2024-03-08T13:57:48;15.73;;;9.40;;
51614;SDS011;37695;52.960;6.188;2024-03-08T14:00:16;15.93;;;7.85;;
51614;SDS011;37695;52.960;6.188;2024-03-08T14:02:42;18.75;;;9.48;;
51614;SDS011;37695;52.960;6.188;2024-03-08T14:05:08;18.45;;;9.50;;
51614;SDS011;37695;52.960;6.188;2024-03-08T14:07:36;16.60;;;9.20;;
51614;SDS011;37695;52.960;6.188;2024-03-08T14:10:02;17.40;;;9.45;;
51614;SDS011;37695;52.960;6.188;2024-03-08T14:12:28;14.20;;;8.63;;
51614;SDS011;37695;52.960;6.188;2024-03-08T14:14:54;17.15;;;9.05;;
51614;SDS011;37695;52.960;6.188;2024-03-08T14:17:22;18.00;;;9.80;;
51614;SDS011;37695;52.960;6.188;2024-03-08T14:19:48;17.83;;;9.65;;
51614;SDS011;37695;52.960;6.188;2024-03-08T14:22:15;15.80;;;9.48;;
51614;SDS011;37695;52.960;6.188;2024-03-08T14:24:41;16.20;;;8.90;;
51614;SDS011;37695;52.960;6.188;2024-03-08T14:27:07;17.73;;;9.10;;
51614;SDS011;37695;52.960;6.188;2024-03-08T14:29:34;17.08;;;8.80;;
51614;SDS011;37695;52.960;6.188;2024-03-08T14:32:00;15.73;;;8.50;;
51614;SDS011;37695;52.960;6.188;2024-03-08T14:34:28;14.65;;;8.65;;
51614;SDS011;37695;52.960;6.188;2024-03-08T14:36:54;14.65;;;9.38;;
51614;SDS011;37695;52.960;6.188;2024-03-08T14:39:21;19.40;;;9.35;;
51614;SDS011;37695;52.960;6.188;2024-03-08T14:41:51;20.08;;;9.25;;
51614;SDS011;37695;52.960;6.188;2024-03-08T14:44:22;15.45;;;9.25;;
51614;SDS011;37695;52.960;6.188;2024-03-08T14:46:54;15.13;;;8.63;;
51614;SDS011;37695;52.960;6.188;2024-03-08T14:49:24;14.57;;;8.50;;
51614;SDS011;37695;52.960;6.188;2024-03-08T14:51:54;16.20;;;8.43;;
51614;SDS011;37695;52.960;6.188;2024-03-08T14:54:20;17.25;;;8.82;;